sensor_id;sensor_type;location;lat;lon;timestamp;pressure;altitude;pressure_sealevel;temperature;humidity
77381;BME280;66439;50.106;10.996;2023-06-05T00:01:38;98943.45;;;15.51;41.27
77381;BME280;66439;50.106;10.996;2023-06-05T00:03:41;98941.20;;;15.46;41.13
77381;BME280;66439;50.106;10.996;2023-06-05T00:05:47;98933.53;;;15.42;41.10
77381;BME280;66439;50.106;10.996;2023-06-05T00:07:49;98934.40;;;15.39;41.25
77381;BME280;66439;50.106;10.996;2023-06-05T00:09:52;98933.95;;;15.36;41.09
77381;BME280;66439;50.106;10.996;2023-06-05T00:11:55;98929.63;;;15.32;41.17
77381;BME280;66439;50.106;10.996;2023-06-05T00:13:58;98931.86;;;15.29;41.13
77381;BME280;66439;50.106;10.996;2023-06-05T00:16:02;98928.07;;;15.27;41.22
77381;BME280;66439;50.106;10.996;2023-06-05T00:18:05;98929.19;;;15.27;41.29
77381;BME280;66439;50.106;10.996;2023-06-05T00:20:10;98927.59;;;15.27;41.35
77381;BME280;66439;50.106;10.996;2023-06-05T00:22:14;98923.91;;;15.27;41.17
77381;BME280;66439;50.106;10.996;2023-06-05T00:24:18;98921.02;;;15.27;40.96
77381;BME280;66439;50.106;10.996;2023-06-05T00:26:21;98919.04;;;15.29;40.95
77381;BME280;66439;50.106;10.996;2023-06-05T00:28:30;98922.47;;;15.31;41.09
77381;BME280;66439;50.106;10.996;2023-06-05T00:30:35;98923.65;;;15.31;40.81
77381;BME280;66439;50.106;10.996;2023-06-05T00:32:39;98918.51;;;15.29;40.89
77381;BME280;66439;50.106;10.996;2023-06-05T00:34:44;98923.50;;;15.26;40.87
77381;BME280;66439;50.106;10.996;2023-06-05T00:36:47;98923.83;;;15.26;40.95
77381;BME280;66439;50.106;10.996;2023-06-05T00:38:53;98920.95;;;15.27;40.76
77381;BME280;66439;50.106;10.996;2023-06-05T00:40:56;98921.47;;;15.25;40.86
77381;BME280;66439;50.106;10.996;2023-06-05T00:42:59;98919.05;;;15.26;40.85
77381;BME280;66439;50.106;10.996;2023-06-05T00:45:03;98920.28;;;15.29;40.98
77381;BME280;66439;50.106;10.996;2023-06-05T00:47:07;98919.86;;;15.32;40.92
77381;BME280;66439;50.106;10.996;2023-06-05T00:49:10;98919.11;;;15.33;40.81
77381;BME280;66439;50.106;10.996;2023-06-05T00:51:14;98920.92;;;15.33;40.69
77381;BME280;66439;50.106;10.996;2023-06-05T00:53:18;98920.06;;;15.33;40.95
77381;BME280;66439;50.106;10.996;2023-06-05T00:55:22;98922.37;;;15.33;40.89
77381;BME280;66439;50.106;10.996;2023-06-05T00:57:26;98922.05;;;15.33;41.15
77381;BME280;66439;50.106;10.996;2023-06-05T00:59:31;98922.71;;;15.35;40.97
77381;BME280;66439;50.106;10.996;2023-06-05T01:01:34;98922.63;;;15.33;40.75
77381;BME280;66439;50.106;10.996;2023-06-05T01:03:38;98921.80;;;15.31;40.78
77381;BME280;66439;50.106;10.996;2023-06-05T01:05:42;98919.63;;;15.27;41.03
77381;BME280;66439;50.106;10.996;2023-06-05T01:07:46;98923.70;;;15.25;41.04
77381;BME280;66439;50.106;10.996;2023-06-05T01:09:52;98921.11;;;15.22;40.95
77381;BME280;66439;50.106;10.996;2023-06-05T01:12:05;98921.61;;;15.15;41.10
77381;BME280;66439;50.106;10.996;2023-06-05T01:14:19;98921.99;;;15.04;41.37
77381;BME280;66439;50.106;10.996;2023-06-05T01:16:26;98916.84;;;14.94;41.44
77381;BME280;66439;50.106;10.996;2023-06-05T01:18:38;98921.42;;;14.89;41.55
77381;BME280;66439;50.106;10.996;2023-06-05T01:20:43;98921.95;;;14.82;41.90
77381;BME280;66439;50.106;10.996;2023-06-05T01:22:48;98925.64;;;14.76;41.97
77381;BME280;66439;50.106;10.996;2023-06-05T01:24:52;98924.61;;;14.72;42.07
77381;BME280;66439;50.106;10.996;2023-06-05T01:29:06;98925.66;;;14.55;42.48
77381;BME280;66439;50.106;10.996;2023-06-05T01:31:14;98926.73;;;14.49;42.47
77381;BME280;66439;50.106;10.996;2023-06-05T01:33:25;98926.23;;;14.43;42.62
77381;BME280;66439;50.106;10.996;2023-06-05T01:35:31;98921.48;;;14.37;42.76
77381;BME280;66439;50.106;10.996;2023-06-05T01:37:37;98920.44;;;14.30;42.80
77381;BME280;66439;50.106;10.996;2023-06-05T01:39:45;98922.84;;;14.26;42.97
77381;BME280;66439;50.106;10.996;2023-06-05T01:41:49;98927.77;;;14.23;43.06
77381;BME280;66439;50.106;10.996;2023-06-05T01:43:53;98936.37;;;14.22;43.08
77381;BME280;66439;50.106;10.996;2023-06-05T01:45:58;98932.64;;;14.16;43.18
77381;BME280;66439;50.106;10.996;2023-06-05T01:48:01;98933.61;;;14.10;43.33
77381;BME280;66439;50.106;10.996;2023-06-05T01:50:06;98935.08;;;14.05;43.68
77381;BME280;66439;50.106;10.996;2023-06-05T01:52:12;98933.45;;;14.00;43.76
77381;BME280;66439;50.106;10.996;2023-06-05T01:54:15;98932.44;;;13.96;43.88
77381;BME280;66439;50.106;10.996;2023-06-05T01:56:22;98931.73;;;13.93;43.87
77381;BME280;66439;50.106;10.996;2023-06-05T01:58:27;98932.84;;;13.90;44.06
77381;BME280;66439;50.106;10.996;2023-06-05T02:00:30;98933.98;;;13.85;44.28
77381;BME280;66439;50.106;10.996;2023-06-05T02:02:33;98935.09;;;13.82;44.19
77381;BME280;66439;50.106;10.996;2023-06-05T02:04:36;98932.55;;;13.80;44.49
77381;BME280;66439;50.106;10.996;2023-06-05T02:06:40;98930.55;;;13.76;44.50
77381;BME280;66439;50.106;10.996;2023-06-05T02:08:47;98930.41;;;13.73;44.49
77381;BME280;66439;50.106;10.996;2023-06-05T02:10:51;98933.64;;;13.69;44.71
77381;BME280;66439;50.106;10.996;2023-06-05T02:12:57;98930.98;;;13.64;44.88
77381;BME280;66439;50.106;10.996;2023-06-05T02:15:00;98928.83;;;13.60;45.08
77381;BME280;66439;50.106;10.996;2023-06-05T02:17:04;98925.06;;;13.57;45.21
77381;BME280;66439;50.106;10.996;2023-06-05T02:19:12;98925.47;;;13.56;45.52
77381;BME280;66439;50.106;10.996;2023-06-05T02:21:14;98922.11;;;13.51;45.79
77381;BME280;66439;50.106;10.996;2023-06-05T02:23:18;98920.25;;;13.48;46.07
77381;BME280;66439;50.106;10.996;2023-06-05T02:25:21;98921.41;;;13.43;46.31
77381;BME280;66439;50.106;10.996;2023-06-05T02:27:30;98923.27;;;13.37;46.51
77381;BME280;66439;50.106;10.996;2023-06-05T02:29:33;98921.24;;;13.30;46.87
77381;BME280;66439;50.106;10.996;2023-06-05T02:31:36;98918.55;;;13.27;47.17
77381;BME280;66439;50.106;10.996;2023-06-05T02:33:39;98921.86;;;13.21;47.37
77381;BME280;66439;50.106;10.996;2023-06-05T02:35:42;98922.60;;;13.16;47.77
77381;BME280;66439;50.106;10.996;2023-06-05T02:37:45;98918.63;;;13.07;47.99
77381;BME280;66439;50.106;10.996;2023-06-05T02:39:49;98919.52;;;13.01;48.34
77381;BME280;66439;50.106;10.996;2023-06-05T02:41:53;98917.15;;;12.97;48.21
77381;BME280;66439;50.106;10.996;2023-06-05T02:43:56;98916.30;;;12.95;48.33
77381;BME280;66439;50.106;10.996;2023-06-05T02:46:01;98915.17;;;12.90;48.48
77381;BME280;66439;50.106;10.996;2023-06-05T02:48:04;98916.90;;;12.86;48.56
77381;BME280;66439;50.106;10.996;2023-06-05T02:50:07;98916.92;;;12.84;48.26
77381;BME280;66439;50.106;10.996;2023-06-05T02:52:13;98913.17;;;12.83;48.19
77381;BME280;66439;50.106;10.996;2023-06-05T02:54:15;98914.63;;;12.80;48.61
77381;BME280;66439;50.106;10.996;2023-06-05T02:56:19;98914.86;;;12.77;48.59
77381;BME280;66439;50.106;10.996;2023-06-05T02:58:24;98914.13;;;12.74;48.91
77381;BME280;66439;50.106;10.996;2023-06-05T03:00:30;98912.37;;;12.71;49.13
77381;BME280;66439;50.106;10.996;2023-06-05T03:02:34;98913.41;;;12.67;49.50
77381;BME280;66439;50.106;10.996;2023-06-05T03:04:40;98914.77;;;12.63;49.90
77381;BME280;66439;50.106;10.996;2023-06-05T03:06:43;98918.73;;;12.58;50.07
77381;BME280;66439;50.106;10.996;2023-06-05T03:08:47;98918.95;;;12.54;50.30
77381;BME280;66439;50.106;10.996;2023-06-05T03:10:53;98919.88;;;12.49;50.64
77381;BME280;66439;50.106;10.996;2023-06-05T03:12:56;98920.29;;;12.45;50.74
77381;BME280;66439;50.106;10.996;2023-06-05T03:15:03;98916.45;;;12.39;51.01
77381;BME280;66439;50.106;10.996;2023-06-05T03:17:06;98917.02;;;12.36;51.21
77381;BME280;66439;50.106;10.996;2023-06-05T03:19:10;98917.42;;;12.33;51.49
77381;BME280;66439;50.106;10.996;2023-06-05T03:21:16;98915.13;;;12.30;51.69
77381;BME280;66439;50.106;10.996;2023-06-05T03:23:19;98917.20;;;12.28;51.96
77381;BME280;66439;50.106;10.996;2023-06-05T03:25:22;98920.09;;;12.26;52.07
77381;BME280;66439;50.106;10.996;2023-06-05T03:27:28;98916.89;;;12.26;52.25
77381;BME280;66439;50.106;10.996;2023-06-05T03:29:32;98919.13;;;12.28;52.05
77381;BME280;66439;50.106;10.996;2023-06-05T03:31:35;98917.98;;;12.33;52.03
77381;BME280;66439;50.106;10.996;2023-06-05T03:33:38;98919.11;;;12.34;52.24
77381;BME280;66439;50.106;10.996;2023-06-05T03:35:41;98919.88;;;12.32;52.46
77381;BME280;66439;50.106;10.996;2023-06-05T03:37:45;98921.61;;;12.28;52.73
77381;BME280;66439;50.106;10.996;2023-06-05T03:39:48;98918.27;;;12.25;52.83
77381;BME280;66439;50.106;10.996;2023-06-05T03:41:52;98921.56;;;12.21;53.06
77381;BME280;66439;50.106;10.996;2023-06-05T03:43:55;98923.95;;;12.19;53.32
77381;BME280;66439;50.106;10.996;2023-06-05T03:45:59;98922.57;;;12.16;53.37
77381;BME280;66439;50.106;10.996;2023-06-05T03:48:04;98922.80;;;12.14;53.38
77381;BME280;66439;50.106;10.996;2023-06-05T03:50:08;98921.61;;;12.13;53.73
77381;BME280;66439;50.106;10.996;2023-06-05T03:52:15;98924.36;;;12.11;53.88
77381;BME280;66439;50.106;10.996;2023-06-05T03:54:18;98922.73;;;12.09;54.01
77381;BME280;66439;50.106;10.996;2023-06-05T03:56:24;98923.95;;;12.04;54.28
77381;BME280;66439;50.106;10.996;2023-06-05T03:58:36;98923.06;;;12.02;54.41
77381;BME280;66439;50.106;10.996;2023-06-05T04:00:45;98921.98;;;12.03;54.30
77381;BME280;66439;50.106;10.996;2023-06-05T04:02:48;98922.21;;;12.07;54.37
77381;BME280;66439;50.106;10.996;2023-06-05T04:04:51;98917.73;;;12.09;54.10
77381;BME280;66439;50.106;10.996;2023-06-05T04:06:55;98922.73;;;12.13;54.22
77381;BME280;66439;50.106;10.996;2023-06-05T04:09:03;98924.14;;;12.16;54.07
77381;BME280;66439;50.106;10.996;2023-06-05T04:11:17;98926.12;;;12.17;54.17
77381;BME280;66439;50.106;10.996;2023-06-05T04:13:22;98928.25;;;12.19;54.23
77381;BME280;66439;50.106;10.996;2023-06-05T04:15:25;98930.25;;;12.20;54.10
77381;BME280;66439;50.106;10.996;2023-06-05T04:17:28;98929.70;;;12.23;54.22
77381;BME280;66439;50.106;10.996;2023-06-05T04:19:31;98931.36;;;12.24;54.19
77381;BME280;66439;50.106;10.996;2023-06-05T04:21:36;98929.17;;;12.27;53.90
77381;BME280;66439;50.106;10.996;2023-06-05T04:23:40;98931.89;;;12.31;53.91
77381;BME280;66439;50.106;10.996;2023-06-05T04:25:44;98931.60;;;12.32;53.80
77381;BME280;66439;50.106;10.996;2023-06-05T04:27:49;98933.31;;;12.31;53.94
77381;BME280;66439;50.106;10.996;2023-06-05T04:29:53;98932.89;;;12.30;54.01
77381;BME280;66439;50.106;10.996;2023-06-05T04:31:56;98929.73;;;12.30;53.92
77381;BME280;66439;50.106;10.996;2023-06-05T04:33:59;98929.02;;;12.31;54.04
77381;BME280;66439;50.106;10.996;2023-06-05T04:36:04;98931.28;;;12.32;54.00
77381;BME280;66439;50.106;10.996;2023-06-05T04:38:07;98929.31;;;12.33;53.88
77381;BME280;66439;50.106;10.996;2023-06-05T04:40:10;98926.81;;;12.33;53.78
77381;BME280;66439;50.106;10.996;2023-06-05T04:42:13;98927.98;;;12.35;53.84
77381;BME280;66439;50.106;10.996;2023-06-05T04:44:19;98925.34;;;12.41;53.83
77381;BME280;66439;50.106;10.996;2023-06-05T04:46:23;98923.70;;;12.46;53.79
77381;BME280;66439;50.106;10.996;2023-06-05T04:48:26;98922.38;;;12.48;53.95
77381;BME280;66439;50.106;10.996;2023-06-05T04:50:30;98922.11;;;12.50;53.93
77381;BME280;66439;50.106;10.996;2023-06-05T04:52:39;98925.70;;;12.51;53.89
77381;BME280;66439;50.106;10.996;2023-06-05T04:54:46;98924.34;;;12.52;53.95
77381;BME280;66439;50.106;10.996;2023-06-05T04:56:49;98928.86;;;12.53;53.72
77381;BME280;66439;50.106;10.996;2023-06-05T04:58:53;98930.13;;;12.52;54.01
77381;BME280;66439;50.106;10.996;2023-06-05T05:00:56;98928.65;;;12.53;53.91
77381;BME280;66439;50.106;10.996;2023-06-05T05:03:08;98928.81;;;12.53;53.93
77381;BME280;66439;50.106;10.996;2023-06-05T05:05:13;98929.77;;;12.54;54.07
77381;BME280;66439;50.106;10.996;2023-06-05T05:07:19;98931.67;;;12.56;53.97
77381;BME280;66439;50.106;10.996;2023-06-05T05:09:25;98931.36;;;12.57;53.95
77381;BME280;66439;50.106;10.996;2023-06-05T05:11:28;98929.05;;;12.58;53.95
77381;BME280;66439;50.106;10.996;2023-06-05T05:13:30;98926.95;;;12.58;53.96
77381;BME280;66439;50.106;10.996;2023-06-05T05:15:33;98928.02;;;12.59;53.89
77381;BME280;66439;50.106;10.996;2023-06-05T05:17:36;98926.16;;;12.61;54.04
77381;BME280;66439;50.106;10.996;2023-06-05T05:19:39;98927.36;;;12.64;54.01
77381;BME280;66439;50.106;10.996;2023-06-05T05:21:45;98926.29;;;12.68;53.85
77381;BME280;66439;50.106;10.996;2023-06-05T05:23:48;98924.77;;;12.71;53.88
77381;BME280;66439;50.106;10.996;2023-06-05T05:25:50;98921.71;;;12.75;53.80
77381;BME280;66439;50.106;10.996;2023-06-05T05:27:54;98922.29;;;12.78;53.85
77381;BME280;66439;50.106;10.996;2023-06-05T05:29:57;98919.34;;;12.83;53.66
77381;BME280;66439;50.106;10.996;2023-06-05T05:32:00;98919.93;;;12.90;53.59
77381;BME280;66439;50.106;10.996;2023-06-05T05:34:04;98924.33;;;12.98;53.72
77381;BME280;66439;50.106;10.996;2023-06-05T05:36:08;98921.65;;;13.04;53.82
77381;BME280;66439;50.106;10.996;2023-06-05T05:38:10;98925.38;;;13.10;53.82
77381;BME280;66439;50.106;10.996;2023-06-05T05:40:14;98926.98;;;13.18;54.02
77381;BME280;66439;50.106;10.996;2023-06-05T05:42:17;98930.77;;;13.26;53.83
77381;BME280;66439;50.106;10.996;2023-06-05T05:44:20;98929.52;;;13.34;53.61
77381;BME280;66439;50.106;10.996;2023-06-05T05:46:22;98930.12;;;13.45;53.66
77381;BME280;66439;50.106;10.996;2023-06-05T05:48:29;98933.80;;;13.53;53.32
77381;BME280;66439;50.106;10.996;2023-06-05T05:50:32;98937.13;;;13.62;52.75
77381;BME280;66439;50.106;10.996;2023-06-05T05:52:34;98938.66;;;13.73;52.07
77381;BME280;66439;50.106;10.996;2023-06-05T05:54:37;98935.56;;;13.84;51.55
77381;BME280;66439;50.106;10.996;2023-06-05T05:56:40;98934.67;;;13.96;50.60
77381;BME280;66439;50.106;10.996;2023-06-05T05:58:44;98934.27;;;14.10;50.24
77381;BME280;66439;50.106;10.996;2023-06-05T06:00:47;98934.84;;;14.24;49.56
77381;BME280;66439;50.106;10.996;2023-06-05T06:02:50;98931.67;;;14.37;48.87
77381;BME280;66439;50.106;10.996;2023-06-05T06:04:55;98931.09;;;14.51;48.18
77381;BME280;66439;50.106;10.996;2023-06-05T06:06:59;98932.59;;;14.64;47.59
77381;BME280;66439;50.106;10.996;2023-06-05T06:09:03;98931.83;;;14.75;46.59
77381;BME280;66439;50.106;10.996;2023-06-05T06:11:08;98933.19;;;14.82;46.08
77381;BME280;66439;50.106;10.996;2023-06-05T06:13:13;98931.80;;;14.91;45.88
77381;BME280;66439;50.106;10.996;2023-06-05T06:15:16;98929.70;;;14.98;45.89
77381;BME280;66439;50.106;10.996;2023-06-05T06:17:19;98929.08;;;15.06;45.40
77381;BME280;66439;50.106;10.996;2023-06-05T06:19:21;98930.39;;;15.14;45.05
77381;BME280;66439;50.106;10.996;2023-06-05T06:21:26;98930.06;;;15.21;44.76
77381;BME280;66439;50.106;10.996;2023-06-05T06:23:28;98926.83;;;15.29;44.79
77381;BME280;66439;50.106;10.996;2023-06-05T06:25:32;98928.96;;;15.40;45.02
77381;BME280;66439;50.106;10.996;2023-06-05T06:27:34;98930.77;;;15.50;44.67
77381;BME280;66439;50.106;10.996;2023-06-05T06:29:48;98924.72;;;15.59;44.61
77381;BME280;66439;50.106;10.996;2023-06-05T06:31:56;98919.93;;;15.70;44.02
77381;BME280;66439;50.106;10.996;2023-06-05T06:34:00;98926.38;;;15.78;44.36
77381;BME280;66439;50.106;10.996;2023-06-05T06:36:02;98929.20;;;15.88;44.26
77381;BME280;66439;50.106;10.996;2023-06-05T06:38:07;98931.83;;;15.99;44.12
77381;BME280;66439;50.106;10.996;2023-06-05T06:40:10;98937.85;;;16.10;44.05
77381;BME280;66439;50.106;10.996;2023-06-05T06:42:13;98937.45;;;16.19;43.79
77381;BME280;66439;50.106;10.996;2023-06-05T06:44:17;98935.63;;;16.27;43.59
77381;BME280;66439;50.106;10.996;2023-06-05T06:46:20;98939.26;;;16.35;43.19
77381;BME280;66439;50.106;10.996;2023-06-05T06:48:22;98937.10;;;16.43;43.24
77381;BME280;66439;50.106;10.996;2023-06-05T06:50:25;98934.10;;;16.50;42.85
77381;BME280;66439;50.106;10.996;2023-06-05T06:52:28;98929.65;;;16.55;42.44
77381;BME280;66439;50.106;10.996;2023-06-05T06:54:31;98927.86;;;16.57;42.34
77381;BME280;66439;50.106;10.996;2023-06-05T06:56:34;98926.83;;;16.58;42.23
77381;BME280;66439;50.106;10.996;2023-06-05T06:58:39;98927.17;;;16.60;42.43
77381;BME280;66439;50.106;10.996;2023-06-05T07:00:42;98925.42;;;16.64;42.48
77381;BME280;66439;50.106;10.996;2023-06-05T07:02:45;98926.45;;;16.67;42.23
77381;BME280;66439;50.106;10.996;2023-06-05T07:04:48;98925.71;;;16.71;42.20
77381;BME280;66439;50.106;10.996;2023-06-05T07:06:51;98924.98;;;16.75;42.18
77381;BME280;66439;50.106;10.996;2023-06-05T07:08:54;98924.39;;;16.81;41.90
77381;BME280;66439;50.106;10.996;2023-06-05T07:10:57;98922.20;;;16.87;41.71
77381;BME280;66439;50.106;10.996;2023-06-05T07:12:59;98924.61;;;16.93;41.77
77381;BME280;66439;50.106;10.996;2023-06-05T07:15:03;98919.26;;;17.02;41.71
77381;BME280;66439;50.106;10.996;2023-06-05T07:17:08;98917.06;;;17.12;42.06
77381;BME280;66439;50.106;10.996;2023-06-05T07:21:14;98916.70;;;17.34;42.03
77381;BME280;66439;50.106;10.996;2023-06-05T07:23:16;98913.30;;;17.43;42.11
77381;BME280;66439;50.106;10.996;2023-06-05T07:25:22;98910.48;;;17.52;42.15
77381;BME280;66439;50.106;10.996;2023-06-05T07:27:27;98910.02;;;17.60;41.86
77381;BME280;66439;50.106;10.996;2023-06-05T07:29:31;98905.55;;;17.67;41.94
77381;BME280;66439;50.106;10.996;2023-06-05T07:31:34;98905.86;;;17.75;41.96
77381;BME280;66439;50.106;10.996;2023-06-05T07:33:36;98905.71;;;17.82;42.06
77381;BME280;66439;50.106;10.996;2023-06-05T07:35:39;98907.90;;;17.89;42.19
77381;BME280;66439;50.106;10.996;2023-06-05T07:37:42;98909.86;;;17.97;42.48
77381;BME280;66439;50.106;10.996;2023-06-05T07:39:44;98907.42;;;18.07;42.22
77381;BME280;66439;50.106;10.996;2023-06-05T07:41:48;98907.83;;;18.15;42.23
77381;BME280;66439;50.106;10.996;2023-06-05T07:43:51;98908.44;;;18.24;42.10
77381;BME280;66439;50.106;10.996;2023-06-05T07:45:54;98902.89;;;18.34;41.42
77381;BME280;66439;50.106;10.996;2023-06-05T07:47:57;98894.07;;;18.42;41.10
77381;BME280;66439;50.106;10.996;2023-06-05T07:50:00;98890.25;;;18.51;41.04
77381;BME280;66439;50.106;10.996;2023-06-05T07:52:06;98889.52;;;18.60;40.69
77381;BME280;66439;50.106;10.996;2023-06-05T07:54:10;98889.59;;;18.69;40.37
77381;BME280;66439;50.106;10.996;2023-06-05T07:56:13;98889.02;;;18.77;40.13
77381;BME280;66439;50.106;10.996;2023-06-05T07:58:17;98883.17;;;18.85;39.40
77381;BME280;66439;50.106;10.996;2023-06-05T08:00:20;98881.63;;;18.93;38.55
77381;BME280;66439;50.106;10.996;2023-06-05T08:02:24;98881.67;;;19.01;38.08
77381;BME280;66439;50.106;10.996;2023-06-05T08:04:28;98883.33;;;19.08;38.75
77381;BME280;66439;50.106;10.996;2023-06-05T08:06:31;98878.75;;;19.15;38.35
77381;BME280;66439;50.106;10.996;2023-06-05T08:08:34;98875.77;;;19.24;38.40
77381;BME280;66439;50.106;10.996;2023-06-05T08:10:37;98872.21;;;19.33;37.12
77381;BME280;66439;50.106;10.996;2023-06-05T08:12:40;98873.77;;;19.43;37.07
77381;BME280;66439;50.106;10.996;2023-06-05T08:14:43;98876.33;;;19.51;36.76
77381;BME280;66439;50.106;10.996;2023-06-05T08:16:46;98874.84;;;19.60;36.56
77381;BME280;66439;50.106;10.996;2023-06-05T08:18:49;98873.71;;;19.67;34.65
77381;BME280;66439;50.106;10.996;2023-06-05T08:20:51;98873.03;;;19.73;34.38
77381;BME280;66439;50.106;10.996;2023-06-05T08:22:56;98873.69;;;19.79;34.36
77381;BME280;66439;50.106;10.996;2023-06-05T08:25:03;98871.48;;;19.85;34.74
77381;BME280;66439;50.106;10.996;2023-06-05T08:27:06;98871.27;;;19.92;35.10
77381;BME280;66439;50.106;10.996;2023-06-05T08:29:10;98875.32;;;19.99;34.89
77381;BME280;66439;50.106;10.996;2023-06-05T08:31:14;98876.73;;;20.02;34.81
77381;BME280;66439;50.106;10.996;2023-06-05T08:33:19;98875.17;;;20.02;34.71
77381;BME280;66439;50.106;10.996;2023-06-05T08:35:22;98878.63;;;20.01;34.93
77381;BME280;66439;50.106;10.996;2023-06-05T08:37:24;98875.12;;;20.02;34.91
77381;BME280;66439;50.106;10.996;2023-06-05T08:39:27;98876.11;;;20.00;35.04
77381;BME280;66439;50.106;10.996;2023-06-05T08:41:35;98876.46;;;19.99;35.18
77381;BME280;66439;50.106;10.996;2023-06-05T08:43:38;98876.39;;;19.97;35.39
77381;BME280;66439;50.106;10.996;2023-06-05T08:45:41;98877.48;;;19.96;35.63
77381;BME280;66439;50.106;10.996;2023-06-05T08:47:49;98875.15;;;19.96;35.92
77381;BME280;66439;50.106;10.996;2023-06-05T08:49:52;98874.83;;;19.96;35.98
77381;BME280;66439;50.106;10.996;2023-06-05T08:52:05;98875.09;;;19.95;35.87
77381;BME280;66439;50.106;10.996;2023-06-05T08:54:09;98872.09;;;19.93;35.91
77381;BME280;66439;50.106;10.996;2023-06-05T08:56:17;98872.55;;;19.92;35.86
77381;BME280;66439;50.106;10.996;2023-06-05T08:58:21;98869.52;;;19.91;35.73
77381;BME280;66439;50.106;10.996;2023-06-05T09:00:26;98867.48;;;19.92;34.96
77381;BME280;66439;50.106;10.996;2023-06-05T09:02:29;98869.98;;;19.96;35.07
77381;BME280;66439;50.106;10.996;2023-06-05T09:04:31;98870.73;;;20.00;35.12
77381;BME280;66439;50.106;10.996;2023-06-05T09:06:35;98869.21;;;20.06;35.39
77381;BME280;66439;50.106;10.996;2023-06-05T09:08:38;98865.61;;;20.15;33.70
77381;BME280;66439;50.106;10.996;2023-06-05T09:10:41;98861.17;;;20.26;33.62
77381;BME280;66439;50.106;10.996;2023-06-05T09:12:57;98866.60;;;20.37;33.06
77381;BME280;66439;50.106;10.996;2023-06-05T09:15:20;98860.21;;;20.49;33.39
77381;BME280;66439;50.106;10.996;2023-06-05T09:17:23;98857.98;;;20.58;33.68
77381;BME280;66439;50.106;10.996;2023-06-05T09:19:43;98857.74;;;20.66;34.24
77381;BME280;66439;50.106;10.996;2023-06-05T09:21:52;98851.52;;;20.76;35.14
77381;BME280;66439;50.106;10.996;2023-06-05T09:24:17;98849.77;;;20.88;35.62
77381;BME280;66439;50.106;10.996;2023-06-05T09:26:21;98850.23;;;21.01;36.14
77381;BME280;66439;50.106;10.996;2023-06-05T09:28:24;98852.63;;;21.09;37.32
77381;BME280;66439;50.106;10.996;2023-06-05T09:30:27;98854.48;;;21.15;38.12
77381;BME280;66439;50.106;10.996;2023-06-05T09:32:31;98854.98;;;21.18;38.20
77381;BME280;66439;50.106;10.996;2023-06-05T09:34:35;98860.96;;;21.25;38.21
77381;BME280;66439;50.106;10.996;2023-06-05T09:36:45;98857.54;;;21.28;38.74
77381;BME280;66439;50.106;10.996;2023-06-05T09:38:47;98858.98;;;21.30;39.06
77381;BME280;66439;50.106;10.996;2023-06-05T09:41:01;98857.38;;;21.33;38.84
77381;BME280;66439;50.106;10.996;2023-06-05T09:43:14;98849.81;;;21.38;38.52
77381;BME280;66439;50.106;10.996;2023-06-05T09:45:19;98847.66;;;21.42;37.97
77381;BME280;66439;50.106;10.996;2023-06-05T09:47:21;98845.48;;;21.46;37.42
77381;BME280;66439;50.106;10.996;2023-06-05T09:49:30;98843.57;;;21.49;37.06
77381;BME280;66439;50.106;10.996;2023-06-05T09:51:33;98841.67;;;21.52;37.27
77381;BME280;66439;50.106;10.996;2023-06-05T09:53:41;98839.85;;;21.58;37.40
77381;BME280;66439;50.106;10.996;2023-06-05T09:55:44;98840.86;;;21.64;36.96
77381;BME280;66439;50.106;10.996;2023-06-05T09:57:49;98836.73;;;21.67;36.84
77381;BME280;66439;50.106;10.996;2023-06-05T09:59:54;98837.13;;;21.69;37.15
77381;BME280;66439;50.106;10.996;2023-06-05T10:02:05;98834.29;;;21.71;37.27
77381;BME280;66439;50.106;10.996;2023-06-05T10:04:10;98837.19;;;21.74;37.17
77381;BME280;66439;50.106;10.996;2023-06-05T10:06:15;98834.91;;;21.78;37.22
77381;BME280;66439;50.106;10.996;2023-06-05T10:08:21;98829.46;;;21.85;37.08
77381;BME280;66439;50.106;10.996;2023-06-05T10:10:24;98827.20;;;21.90;36.96
77381;BME280;66439;50.106;10.996;2023-06-05T10:12:30;98823.95;;;21.96;36.92
77381;BME280;66439;50.106;10.996;2023-06-05T10:14:37;98821.41;;;22.01;36.93
77381;BME280;66439;50.106;10.996;2023-06-05T10:16:45;98822.66;;;22.07;36.84
77381;BME280;66439;50.106;10.996;2023-06-05T10:18:51;98824.48;;;22.13;36.72
77381;BME280;66439;50.106;10.996;2023-06-05T10:20:55;98822.41;;;22.17;36.49
77381;BME280;66439;50.106;10.996;2023-06-05T10:22:58;98820.50;;;22.21;36.22
77381;BME280;66439;50.106;10.996;2023-06-05T10:25:04;98813.61;;;22.24;36.08
77381;BME280;66439;50.106;10.996;2023-06-05T10:31:53;98818.09;;;22.28;35.40
77381;BME280;66439;50.106;10.996;2023-06-05T10:35:16;98809.69;;;22.28;35.25
77381;BME280;66439;50.106;10.996;2023-06-05T10:39:03;98802.71;;;22.35;35.47
77381;BME280;66439;50.106;10.996;2023-06-05T10:41:06;98805.43;;;22.38;34.88
77381;BME280;66439;50.106;10.996;2023-06-05T10:45:32;98800.26;;;22.40;34.88
77381;BME280;66439;50.106;10.996;2023-06-05T10:49:38;98790.14;;;22.41;35.06
77381;BME280;66439;50.106;10.996;2023-06-05T10:51:46;98793.33;;;22.41;34.68
77381;BME280;66439;50.106;10.996;2023-06-05T10:53:50;98787.34;;;22.44;35.18
77381;BME280;66439;50.106;10.996;2023-06-05T10:55:53;98792.76;;;22.50;35.19
77381;BME280;66439;50.106;10.996;2023-06-05T10:58:12;98786.24;;;22.56;35.08
77381;BME280;66439;50.106;10.996;2023-06-05T11:00:17;98783.70;;;22.62;35.36
77381;BME280;66439;50.106;10.996;2023-06-05T11:04:23;98785.38;;;22.78;35.76
77381;BME280;66439;50.106;10.996;2023-06-05T11:06:27;98783.67;;;22.82;35.50
77381;BME280;66439;50.106;10.996;2023-06-05T11:08:31;98783.29;;;22.88;35.67
77381;BME280;66439;50.106;10.996;2023-06-05T11:10:35;98780.25;;;22.93;35.60